createdAt,value
2019-01-29T00:01:53.492Z,15.08
2019-01-29T00:04:21.576Z,11.80
2019-01-29T00:06:49.643Z,11.68
2019-01-29T00:09:17.704Z,10.28
2019-01-29T00:11:45.723Z,19.48
2019-01-29T00:14:13.772Z,15.10
2019-01-29T00:16:41.831Z,19.12
2019-01-29T00:19:10.015Z,11.28
2019-01-29T00:21:38.016Z,16.45
2019-01-29T00:24:06.035Z,8.78
2019-01-29T00:26:34.019Z,16.07
2019-01-29T00:29:02.081Z,12.70
2019-01-29T00:31:30.099Z,14.93
2019-01-29T00:33:58.179Z,13.75
2019-01-29T00:36:26.291Z,8.38
2019-01-29T00:38:54.303Z,16.52
2019-01-29T00:41:22.331Z,11.75
2019-01-29T00:43:50.339Z,16.17
2019-01-29T00:46:18.322Z,25.00
2019-01-29T00:48:46.332Z,12.40
2019-01-29T00:51:14.358Z,14.47
2019-01-29T00:53:42.374Z,5.90
2019-01-29T00:56:10.448Z,15.85
2019-01-29T00:58:38.570Z,10.30
2019-01-29T01:01:06.726Z,13.85
2019-01-29T01:03:34.814Z,11.65
2019-01-29T01:06:02.859Z,5.75
2019-01-29T01:08:30.980Z,10.90
2019-01-29T01:10:58.996Z,12.80
2019-01-29T01:13:26.988Z,17.77
2019-01-29T01:15:55.473Z,6.80
2019-01-29T01:18:23.483Z,12.85
2019-01-29T01:20:55.437Z,14.63
2019-01-29T01:23:23.554Z,12.53
2019-01-29T01:25:51.487Z,11.00
2019-01-29T01:28:19.483Z,7.75
2019-01-29T01:30:47.479Z,9.28
2019-01-29T01:33:15.508Z,17.07
2019-01-29T01:35:43.527Z,12.40
2019-01-29T01:38:12.749Z,11.03
2019-01-29T01:40:42.187Z,16.85
2019-01-29T01:43:10.210Z,6.12
2019-01-29T01:45:38.238Z,7.53
2019-01-29T01:48:06.263Z,8.10
2019-01-29T01:50:34.314Z,9.25
2019-01-29T01:53:02.313Z,8.35
2019-01-29T01:55:30.345Z,11.03
2019-01-29T01:57:58.396Z,4.78
2019-01-29T02:00:26.466Z,7.87
2019-01-29T02:02:54.390Z,8.18
2019-01-29T02:05:22.478Z,9.23
2019-01-29T02:07:50.578Z,9.68
2019-01-29T02:10:27.585Z,11.65
2019-01-29T02:12:55.656Z,16.15
2019-01-29T02:15:23.840Z,5.60
2019-01-29T02:17:51.878Z,7.83
2019-01-29T02:20:19.956Z,9.73
2019-01-29T02:22:48.011Z,5.55
2019-01-29T02:25:16.079Z,8.68
2019-01-29T02:27:44.087Z,8.60
2019-01-29T02:30:18.008Z,13.32
2019-01-29T02:32:46.126Z,4.97
2019-01-29T02:35:15.240Z,10.08
2019-01-29T02:37:43.254Z,10.43
2019-01-29T02:40:33.504Z,6.08
2019-01-29T02:43:01.603Z,13.78
2019-01-29T02:45:29.694Z,10.70
2019-01-29T02:47:57.826Z,7.92
2019-01-29T02:50:25.794Z,6.37
2019-01-29T02:52:53.976Z,10.93
2019-01-29T02:55:22.071Z,9.80
2019-01-29T02:57:50.110Z,7.20
2019-01-29T03:00:20.666Z,6.17
2019-01-29T03:02:48.687Z,3.98
2019-01-29T03:05:16.694Z,5.50
2019-01-29T03:07:44.698Z,10.13
2019-01-29T03:10:14.146Z,7.95
2019-01-29T03:12:42.655Z,8.38
2019-01-29T03:15:13.811Z,4.40
2019-01-29T03:17:41.796Z,13.22
2019-01-29T03:20:10.606Z,6.58
2019-01-29T03:22:38.723Z,7.78
2019-01-29T03:25:07.771Z,8.13
2019-01-29T03:27:35.986Z,10.45
2019-01-29T03:30:04.091Z,5.40
2019-01-29T03:32:38.458Z,3.05
2019-01-29T03:35:06.895Z,7.58
2019-01-29T03:37:35.110Z,11.60
2019-01-29T03:40:03.143Z,15.45
2019-01-29T03:42:31.328Z,6.85
2019-01-29T03:44:59.367Z,8.03
2019-01-29T03:47:27.350Z,8.58
2019-01-29T03:49:55.455Z,12.00
2019-01-29T03:52:23.421Z,8.48
2019-01-29T03:54:51.440Z,6.90
2019-01-29T03:57:19.678Z,12.55
2019-01-29T03:59:47.862Z,7.72
2019-01-29T04:02:16.027Z,6.12
2019-01-29T04:04:43.996Z,8.75
2019-01-29T04:07:11.956Z,9.38
2019-01-29T04:09:39.957Z,6.65
2019-01-29T04:12:08.000Z,11.12
2019-01-29T04:14:35.991Z,7.87
2019-01-29T04:17:03.987Z,8.50
2019-01-29T04:19:32.021Z,7.45
2019-01-29T04:22:00.334Z,10.85
2019-01-29T04:24:28.311Z,14.30
2019-01-29T04:26:56.359Z,7.10
2019-01-29T04:29:24.310Z,11.57
2019-01-29T04:31:52.416Z,7.95
2019-01-29T04:34:20.493Z,7.75
2019-01-29T04:36:48.736Z,11.25
2019-01-29T04:39:16.741Z,7.60
2019-01-29T04:41:44.995Z,9.50
2019-01-29T04:44:13.031Z,8.78
2019-01-29T04:46:40.987Z,7.87
2019-01-29T04:49:08.991Z,8.25
2019-01-29T04:51:37.234Z,10.65
2019-01-29T04:54:05.360Z,11.15
2019-01-29T04:56:33.416Z,6.97
2019-01-29T04:59:01.725Z,8.95
2019-01-29T05:01:29.759Z,10.90
2019-01-29T05:03:57.823Z,14.10
2019-01-29T05:06:25.820Z,6.55
2019-01-29T05:08:53.808Z,9.28
2019-01-29T05:11:21.979Z,6.72
2019-01-29T05:13:50.014Z,8.35
2019-01-29T05:16:17.988Z,11.05
2019-01-29T05:18:46.126Z,9.93
2019-01-29T05:21:14.126Z,8.78
2019-01-29T05:23:42.203Z,15.15
2019-01-29T05:26:10.271Z,7.55
2019-01-29T05:28:38.385Z,14.28
2019-01-29T05:31:06.386Z,16.85
2019-01-29T05:33:34.448Z,16.00
2019-01-29T05:36:02.497Z,14.78
2019-01-29T05:38:30.517Z,19.70
2019-01-29T05:40:58.665Z,11.25
2019-01-29T05:43:26.700Z,9.83
2019-01-29T05:45:54.728Z,12.03
2019-01-29T05:48:23.046Z,18.02
2019-01-29T05:50:51.121Z,12.88
2019-01-29T05:53:19.204Z,4.95
2019-01-29T05:55:47.300Z,10.60
2019-01-29T05:58:15.333Z,8.50
2019-01-29T06:00:43.355Z,11.55
2019-01-29T06:03:11.521Z,7.50
2019-01-29T06:05:39.523Z,13.25
2019-01-29T06:08:07.653Z,7.75
2019-01-29T06:10:35.769Z,7.95
2019-01-29T06:13:04.027Z,8.10
2019-01-29T06:15:32.086Z,7.92
2019-01-29T06:18:00.176Z,15.10
2019-01-29T06:20:28.757Z,11.93
2019-01-29T06:22:56.810Z,10.35
2019-01-29T06:25:24.861Z,15.43
2019-01-29T06:27:52.968Z,10.00
2019-01-29T06:30:22.152Z,12.30
2019-01-29T06:32:50.204Z,11.40
2019-01-29T06:35:18.640Z,14.68
2019-01-29T06:37:46.796Z,11.10
2019-01-29T06:40:17.862Z,17.32
2019-01-29T06:42:46.081Z,8.15
2019-01-29T06:45:14.872Z,17.77
2019-01-29T06:47:42.941Z,13.32
2019-01-29T06:50:13.395Z,12.75
2019-01-29T06:52:41.457Z,6.47
2019-01-29T06:55:11.145Z,9.18
2019-01-29T06:57:39.607Z,7.10
2019-01-29T07:00:09.698Z,10.55
2019-01-29T07:02:37.745Z,9.98
2019-01-29T07:05:06.849Z,15.23
2019-01-29T07:07:34.974Z,11.22
2019-01-29T07:10:03.041Z,14.23
2019-01-29T07:12:31.068Z,12.20
2019-01-29T07:14:59.069Z,11.55
2019-01-29T07:17:31.018Z,3.67
2019-01-29T07:20:01.378Z,11.65
2019-01-29T07:22:29.363Z,17.52
2019-01-29T07:24:57.634Z,15.10
2019-01-29T07:27:25.844Z,16.42
2019-01-29T07:29:53.984Z,22.82
2019-01-29T07:32:22.160Z,9.58
2019-01-29T07:34:50.206Z,17.57
2019-01-29T07:37:22.177Z,20.57
2019-01-29T07:39:48.228Z,18.42
2019-01-29T07:42:16.242Z,11.40
2019-01-29T07:44:46.114Z,14.13
2019-01-29T07:47:14.159Z,16.43
2019-01-29T07:49:42.162Z,18.10
2019-01-29T07:52:10.190Z,17.80
2019-01-29T07:54:38.210Z,22.85
2019-01-29T07:57:06.405Z,18.20
2019-01-29T07:59:34.604Z,12.63
2019-01-29T08:02:02.751Z,20.57
2019-01-29T08:04:30.713Z,14.23
2019-01-29T08:06:58.820Z,14.83
2019-01-29T08:09:26.854Z,19.42
2019-01-29T08:11:54.957Z,11.95
2019-01-29T08:14:23.131Z,12.85
2019-01-29T08:16:51.205Z,15.50
2019-01-29T08:19:19.217Z,13.20
2019-01-29T08:21:47.347Z,16.65
2019-01-29T08:24:15.504Z,13.00
2019-01-29T08:26:43.687Z,16.10
2019-01-29T08:29:11.699Z,11.75
2019-01-29T08:31:39.775Z,17.77
2019-01-29T08:34:07.858Z,18.95
2019-01-29T08:36:35.958Z,19.50
2019-01-29T08:39:05.975Z,12.25
2019-01-29T08:41:34.097Z,18.35
2019-01-29T08:44:02.245Z,11.25
2019-01-29T08:46:30.368Z,20.75
2019-01-29T08:48:58.444Z,15.40
2019-01-29T08:51:26.406Z,19.30
2019-01-29T08:53:54.401Z,23.10
2019-01-29T08:56:22.514Z,12.18
2019-01-29T08:58:50.762Z,16.95
2019-01-29T09:01:18.786Z,26.12
2019-01-29T09:03:46.826Z,30.43
2019-01-29T09:06:15.005Z,15.08
2019-01-29T09:08:43.005Z,24.35
2019-01-29T09:11:11.107Z,23.38
2019-01-29T09:13:40.536Z,27.77
2019-01-29T09:16:08.659Z,31.42
2019-01-29T09:18:36.697Z,24.85
2019-01-29T09:21:04.947Z,29.60
2019-01-29T09:23:33.043Z,24.18
2019-01-29T09:26:01.186Z,19.45
2019-01-29T09:28:29.311Z,30.30
2019-01-29T09:30:57.341Z,24.52
2019-01-29T09:33:25.473Z,27.25
2019-01-29T09:35:53.655Z,25.50
2019-01-29T09:38:21.686Z,17.62
2019-01-29T09:40:49.879Z,22.87
2019-01-29T09:43:17.900Z,27.52
2019-01-29T09:45:46.048Z,25.20
2019-01-29T09:48:14.172Z,23.73
2019-01-29T09:50:42.238Z,37.73
2019-01-29T09:53:10.408Z,23.18
2019-01-29T09:55:38.522Z,27.87
2019-01-29T09:58:06.642Z,16.75
2019-01-29T10:00:36.628Z,31.35
2019-01-29T10:03:05.171Z,29.25
2019-01-29T10:05:33.238Z,35.63
2019-01-29T10:08:01.354Z,41.75
2019-01-29T10:10:29.389Z,30.77
2019-01-29T10:13:04.817Z,38.90
2019-01-29T10:15:34.025Z,37.23
2019-01-29T10:18:02.177Z,29.35
2019-01-29T10:20:30.369Z,43.23
2019-01-29T10:22:58.549Z,32.78
2019-01-29T10:25:26.683Z,33.25
2019-01-29T10:27:54.919Z,32.63
2019-01-29T10:30:23.994Z,34.15
2019-01-29T10:32:52.116Z,32.30
2019-01-29T10:35:20.419Z,35.78
2019-01-29T10:37:48.606Z,24.70
2019-01-29T10:40:18.741Z,23.45
2019-01-29T10:42:46.892Z,16.67
2019-01-29T10:45:16.315Z,15.60
2019-01-29T10:47:44.386Z,26.30
2019-01-29T10:50:15.102Z,25.75
2019-01-29T10:55:10.670Z,24.07
2019-01-29T10:57:38.756Z,22.30
2019-01-29T11:00:12.072Z,23.12
2019-01-29T11:02:39.642Z,22.02
2019-01-29T11:05:08.263Z,30.50
2019-01-29T11:07:36.378Z,21.60
2019-01-29T11:10:05.779Z,31.20
2019-01-29T11:12:34.083Z,20.72
2019-01-29T11:15:02.156Z,24.65
2019-01-29T11:17:30.285Z,19.67
2019-01-29T11:19:58.623Z,17.82
2019-01-29T11:22:26.708Z,17.62
2019-01-29T11:24:54.883Z,18.45
2019-01-29T11:27:23.005Z,22.37
2019-01-29T11:29:51.158Z,23.85
2019-01-29T11:34:54.345Z,13.55
2019-01-29T11:37:22.549Z,19.92
2019-01-29T11:39:50.632Z,21.12
2019-01-29T11:42:18.857Z,17.25
2019-01-29T11:44:46.929Z,17.80
2019-01-29T11:47:15.329Z,20.70
2019-01-29T11:49:43.422Z,13.15
2019-01-29T11:52:11.528Z,19.07
2019-01-29T11:54:39.589Z,18.50
2019-01-29T11:57:08.040Z,13.13
2019-01-29T11:59:36.118Z,18.73
2019-01-29T12:02:04.200Z,18.77
2019-01-29T12:04:32.256Z,16.02
2019-01-29T12:07:00.338Z,14.07
2019-01-29T12:09:28.355Z,16.40
2019-01-29T12:11:56.368Z,23.50
2019-01-29T12:14:24.476Z,19.73
2019-01-29T12:16:52.622Z,12.33
2019-01-29T12:19:20.644Z,17.27
2019-01-29T12:21:48.982Z,18.82
2019-01-29T12:24:17.070Z,18.25
2019-01-29T12:26:45.169Z,16.02
2019-01-29T12:29:13.389Z,15.20
2019-01-29T12:31:41.435Z,21.50
2019-01-29T12:34:09.545Z,20.37
2019-01-29T12:36:37.603Z,19.42
2019-01-29T12:39:08.330Z,15.70
2019-01-29T12:44:03.933Z,17.62
2019-01-29T12:46:32.111Z,17.40
2019-01-29T12:49:00.271Z,18.32
2019-01-29T12:51:41.753Z,17.02
2019-01-29T12:54:10.241Z,14.18
2019-01-29T12:56:38.461Z,23.50
2019-01-29T12:59:06.806Z,23.62
2019-01-29T13:01:35.022Z,21.70
2019-01-29T13:04:03.072Z,21.48
2019-01-29T13:06:34.879Z,19.90
2019-01-29T13:09:04.066Z,19.17
2019-01-29T13:11:32.118Z,19.55
2019-01-29T13:14:00.136Z,20.23
2019-01-29T13:16:28.360Z,18.30
2019-01-29T13:18:56.664Z,17.60
2019-01-29T13:21:24.829Z,23.67
2019-01-29T13:23:53.233Z,21.10
2019-01-29T13:26:29.653Z,20.82
2019-01-29T13:28:51.484Z,13.62
2019-01-29T13:31:19.788Z,13.62
2019-01-29T13:33:47.816Z,11.63
2019-01-29T13:36:15.921Z,20.45
2019-01-29T13:38:44.414Z,11.45
2019-01-29T13:41:12.646Z,12.45
2019-01-29T13:43:41.017Z,18.25
2019-01-29T13:46:09.551Z,15.38
2019-01-29T13:48:38.211Z,16.87
2019-01-29T13:51:06.750Z,17.40
2019-01-29T13:53:40.739Z,11.95
2019-01-29T13:56:11.412Z,17.82
2019-01-29T14:01:11.967Z,15.28
2019-01-29T14:03:41.697Z,16.12
2019-01-29T14:06:09.816Z,16.50
2019-01-29T14:08:37.985Z,11.88
2019-01-29T14:11:06.082Z,12.70
2019-01-29T14:13:34.775Z,11.33
2019-01-29T14:16:06.048Z,8.78
2019-01-29T14:18:34.246Z,10.18
2019-01-29T14:21:02.762Z,13.28
2019-01-29T14:23:31.059Z,12.33
2019-01-29T14:26:02.016Z,11.60
2019-01-29T14:28:30.186Z,6.83
2019-01-29T14:30:58.401Z,12.88
2019-01-29T14:33:26.853Z,8.15
2019-01-29T14:35:54.992Z,10.65
2019-01-29T14:39:01.352Z,8.65
2019-01-29T14:41:29.613Z,8.45
2019-01-29T14:43:59.432Z,8.68
2019-01-29T14:46:27.678Z,12.47
2019-01-29T14:48:55.903Z,11.63
2019-01-29T14:51:24.360Z,9.55
2019-01-29T14:53:52.909Z,13.50
2019-01-29T14:56:21.183Z,11.95
2019-01-29T14:58:49.368Z,8.95
2019-01-29T15:01:17.502Z,6.95
2019-01-29T15:03:46.176Z,10.28
2019-01-29T15:06:14.472Z,15.95
2019-01-29T15:08:42.937Z,16.55
2019-01-29T15:11:11.318Z,8.48
2019-01-29T15:13:40.109Z,8.68
2019-01-29T15:16:27.407Z,8.15
2019-01-29T15:19:00.698Z,8.03
2019-01-29T15:21:37.506Z,11.80
2019-01-29T15:23:59.045Z,9.08
2019-01-29T15:26:27.414Z,9.65
2019-01-29T15:28:55.710Z,11.97
2019-01-29T15:31:23.993Z,7.83
2019-01-29T15:33:53.062Z,8.20
2019-01-29T15:36:21.524Z,8.83
2019-01-29T15:38:51.748Z,6.20
2019-01-29T15:41:20.243Z,8.90
2019-01-29T15:43:49.719Z,6.15
2019-01-29T15:46:18.115Z,4.40
2019-01-29T15:48:51.394Z,4.33
2019-01-29T15:51:19.893Z,7.70
2019-01-29T15:53:48.179Z,10.75
2019-01-29T15:56:16.305Z,8.20
2019-01-29T15:58:44.825Z,6.97
2019-01-29T16:01:12.942Z,9.75
2019-01-29T16:03:41.516Z,7.78
2019-01-29T16:06:09.532Z,5.50
2019-01-29T16:08:37.849Z,6.28
2019-01-29T16:11:06.107Z,4.92
2019-01-29T16:13:34.443Z,4.83
2019-01-29T16:16:02.761Z,12.15
2019-01-29T16:18:32.133Z,12.43
2019-01-29T16:21:00.352Z,8.40
2019-01-29T16:23:28.431Z,4.12
2019-01-29T16:25:56.445Z,8.20
2019-01-29T16:28:24.500Z,4.62
2019-01-29T16:30:52.776Z,6.55
2019-01-29T16:33:20.844Z,6.45
2019-01-29T16:35:49.137Z,8.15
2019-01-29T16:38:17.321Z,4.08
2019-01-29T16:40:45.844Z,4.72
2019-01-29T16:43:14.290Z,7.17
2019-01-29T16:45:42.498Z,3.52
2019-01-29T16:48:10.572Z,4.40
2019-01-29T16:50:38.770Z,5.83
2019-01-29T16:53:07.255Z,5.05
2019-01-29T16:55:35.303Z,8.93
2019-01-29T16:58:03.645Z,3.80
2019-01-29T17:00:32.280Z,5.67
2019-01-29T17:03:00.519Z,3.20
2019-01-29T17:05:28.569Z,5.72
2019-01-29T17:07:56.663Z,6.37
2019-01-29T17:10:25.267Z,5.75
2019-01-29T17:12:53.401Z,8.30
2019-01-29T17:15:24.049Z,7.12
2019-01-29T17:20:22.099Z,6.58
2019-01-29T17:22:50.677Z,4.65
2019-01-29T17:25:19.135Z,3.47
2019-01-29T17:27:47.223Z,5.22
2019-01-29T17:30:19.256Z,5.92
2019-01-29T17:32:47.375Z,6.35
2019-01-29T17:35:15.532Z,14.18
2019-01-29T17:37:44.319Z,8.80
2019-01-29T17:40:12.974Z,8.93
2019-01-29T17:42:41.214Z,4.35
2019-01-29T17:45:11.048Z,5.00
2019-01-29T17:47:39.832Z,7.60
2019-01-29T17:50:12.717Z,6.67
2019-01-29T17:52:40.949Z,8.25
2019-01-29T17:55:10.674Z,10.15
2019-01-29T17:57:38.968Z,15.43
2019-01-29T18:00:09.418Z,12.95
2019-01-29T18:02:37.678Z,13.65
2019-01-29T18:05:07.095Z,16.87
2019-01-29T18:07:36.426Z,13.88
2019-01-29T18:10:06.307Z,22.65
2019-01-29T18:12:35.111Z,31.35
2019-01-29T18:15:04.456Z,63.30
2019-01-29T18:17:33.403Z,26.95
2019-01-29T18:20:02.249Z,44.95
2019-01-29T18:22:31.487Z,32.75
2019-01-29T18:25:00.541Z,32.40
2019-01-29T18:27:29.381Z,31.95
2019-01-29T18:29:57.594Z,28.57
2019-01-29T18:32:26.280Z,33.25
2019-01-29T18:34:54.711Z,21.25
2019-01-29T18:37:23.871Z,17.40
2019-01-29T18:39:53.549Z,15.48
2019-01-29T18:42:22.303Z,15.77
2019-01-29T18:44:51.814Z,20.37
2019-01-29T18:47:20.787Z,14.03
2019-01-29T18:49:49.781Z,15.18
2019-01-29T18:52:20.469Z,22.35
2019-01-29T18:54:49.114Z,9.93
2019-01-29T18:57:19.712Z,15.48
2019-01-29T18:59:49.167Z,11.20
2019-01-29T19:02:18.608Z,11.53
2019-01-29T19:04:47.965Z,13.85
2019-01-29T19:07:16.617Z,8.30
2019-01-29T19:09:45.703Z,11.43
2019-01-29T19:12:15.594Z,11.03
2019-01-29T19:14:45.087Z,9.07
2019-01-29T19:17:14.584Z,11.83
2019-01-29T19:19:44.308Z,8.93
2019-01-29T19:22:15.869Z,11.57
2019-01-29T19:24:44.862Z,8.83
2019-01-29T19:27:14.129Z,9.35
2019-01-29T19:29:42.694Z,10.40
2019-01-29T19:32:12.278Z,15.08
2019-01-29T19:34:41.656Z,9.48
2019-01-29T19:37:10.611Z,12.88
2019-01-29T19:39:39.814Z,9.80
2019-01-29T19:42:09.219Z,9.45
2019-01-29T19:44:39.089Z,13.72
2019-01-29T19:47:08.019Z,12.20
2019-01-29T19:49:37.396Z,12.37
2019-01-29T19:52:06.769Z,9.45
2019-01-29T19:57:12.639Z,18.95
2019-01-29T19:59:42.334Z,15.63
2019-01-29T20:02:11.644Z,16.32
2019-01-29T20:04:41.111Z,17.32
2019-01-29T20:07:10.226Z,16.70
2019-01-29T20:09:39.822Z,20.72
2019-01-29T20:12:28.225Z,16.65
2019-01-29T20:14:57.694Z,17.98
2019-01-29T20:17:26.600Z,20.23
2019-01-29T20:19:55.550Z,16.52
2019-01-29T20:22:24.554Z,16.17
2019-01-29T20:24:53.859Z,17.48
2019-01-29T20:27:23.664Z,25.00
2019-01-29T20:29:53.185Z,35.43
2019-01-29T20:32:52.942Z,30.05
2019-01-29T20:35:13.416Z,47.17
2019-01-29T20:37:42.224Z,40.48
2019-01-29T20:40:13.204Z,49.50
2019-01-29T20:42:42.312Z,41.00
2019-01-29T20:45:11.649Z,54.40
2019-01-29T20:47:40.242Z,39.30
2019-01-29T20:50:13.006Z,43.48
2019-01-29T20:52:42.713Z,22.85
2019-01-29T20:55:12.031Z,22.52
2019-01-29T20:57:40.712Z,25.70
2019-01-29T21:00:21.528Z,25.57
2019-01-29T21:05:18.148Z,32.15
2019-01-29T21:07:46.562Z,48.17
2019-01-29T21:10:17.586Z,58.48
2019-01-29T21:12:46.550Z,27.55
2019-01-29T21:15:17.258Z,28.52
2019-01-29T21:20:18.205Z,28.52
2019-01-29T21:22:46.994Z,26.73
2019-01-29T21:25:15.892Z,25.82
2019-01-29T21:27:44.740Z,43.20
2019-01-29T21:30:20.513Z,67.47
2019-01-29T21:32:48.922Z,60.63
2019-01-29T21:35:17.472Z,31.20
2019-01-29T21:37:46.017Z,31.95
2019-01-29T21:40:14.673Z,31.15
2019-01-29T21:42:43.237Z,17.25
2019-01-29T21:45:12.639Z,18.82
2019-01-29T21:47:41.725Z,21.45
2019-01-29T21:50:16.584Z,27.75
2019-01-29T21:52:44.759Z,18.48
2019-01-29T21:55:12.943Z,17.85
2019-01-29T21:57:41.221Z,22.98
2019-01-29T22:00:13.459Z,27.58
2019-01-29T22:02:41.670Z,19.67
2019-01-29T22:05:11.458Z,19.25
2019-01-29T22:07:39.609Z,22.82
2019-01-29T22:10:08.849Z,18.25
2019-01-29T22:12:37.497Z,19.65
2019-01-29T22:15:08.134Z,17.67
2019-01-29T22:17:36.466Z,20.30
2019-01-29T22:20:05.276Z,17.17
2019-01-29T22:22:33.404Z,14.80
2019-01-29T22:25:01.796Z,15.00
2019-01-29T22:27:29.864Z,19.98
2019-01-29T22:29:57.976Z,14.80
2019-01-29T22:32:26.118Z,12.75
2019-01-29T22:34:54.377Z,20.50
2019-01-29T22:37:22.413Z,20.45
2019-01-29T22:39:50.488Z,24.55
2019-01-29T22:42:20.672Z,13.58
2019-01-29T22:44:48.485Z,30.03
2019-01-29T22:47:16.515Z,18.30
2019-01-29T22:49:44.545Z,17.30
2019-01-29T22:52:12.605Z,15.80
2019-01-29T22:54:40.605Z,15.10
2019-01-29T22:57:08.651Z,25.90
2019-01-29T22:59:36.695Z,22.15
2019-01-29T23:02:04.742Z,24.75
2019-01-29T23:04:36.375Z,26.65
2019-01-29T23:07:28.094Z,27.98
2019-01-29T23:09:56.100Z,27.93
2019-01-29T23:12:24.126Z,25.82
2019-01-29T23:14:52.260Z,19.80
2019-01-29T23:17:20.415Z,24.75
2019-01-29T23:19:48.550Z,24.87
2019-01-29T23:22:16.622Z,26.85
2019-01-29T23:24:44.686Z,19.98
2019-01-29T23:27:12.766Z,18.82
2019-01-29T23:29:43.538Z,18.42
2019-01-29T23:32:10.800Z,21.17
2019-01-29T23:34:41.680Z,23.12
2019-01-29T23:37:09.759Z,19.67
2019-01-29T23:39:37.802Z,18.95
2019-01-29T23:42:05.918Z,15.40
2019-01-29T23:44:36.868Z,11.08
2019-01-29T23:47:03.846Z,12.93
2019-01-29T23:49:31.959Z,13.90
2019-01-29T23:51:59.997Z,11.25
2019-01-29T23:54:28.030Z,17.00
2019-01-29T23:56:56.049Z,12.80
2019-01-29T23:59:24.047Z,18.00
